Terminal Aerodrome Forecast
Issued by NWS

Home | Current Version | Previous Version | Text Only | Print | Product List | Glossary Off
Versions: 1 2 3 4 5 6 7 8 9 10 11 12 13 14 15 16 17 18

000
FTUS43 KGRB 261135
TAFRHI
TAF
KRHI 261135Z 2612/2712 15004KT P6SM VCSH BKN060 BKN100
     FM261400 15006KT P6SM BKN050
     FM262100 19007KT P6SM VCSH OVC040
     FM270300 21004KT P6SM VCSH BKN025
     FM270600 VRB03KT 4SM BR BKN025=

USA.gov is the U.S. government's official web portal to all federal, state and local government web resources and services.